createdAt,value
2019-04-26T00:00:52.592Z,1.60
2019-04-26T00:03:22.618Z,1.80
2019-04-26T00:05:51.281Z,1.67
2019-04-26T00:08:19.734Z,1.77
2019-04-26T00:10:49.767Z,1.40
2019-04-26T00:13:19.964Z,1.70
2019-04-26T00:15:54.446Z,2.07
2019-04-26T00:18:22.894Z,2.00
2019-04-26T00:20:51.291Z,2.30
2019-04-26T00:23:19.728Z,2.47
2019-04-26T00:25:48.118Z,3.10
2019-04-26T00:28:17.029Z,2.73
2019-04-26T00:30:45.564Z,2.13
2019-04-26T00:33:13.938Z,2.63
2019-04-26T00:35:47.810Z,2.37
2019-04-26T00:38:13.137Z,2.57
2019-04-26T00:40:42.474Z,2.37
2019-04-26T00:43:10.901Z,2.37
2019-04-26T00:45:39.345Z,2.57
2019-04-26T00:48:07.733Z,2.80
2019-04-26T00:50:36.130Z,2.30
2019-04-26T00:53:04.555Z,2.53
2019-04-26T00:55:32.940Z,2.10
2019-04-26T00:58:01.510Z,1.93
2019-04-26T01:00:30.138Z,2.07
2019-04-26T01:02:58.712Z,2.57
2019-04-26T01:05:28.561Z,1.70
2019-04-26T01:07:57.479Z,2.37
2019-04-26T01:10:25.924Z,2.10
2019-04-26T01:12:54.432Z,1.77
2019-04-26T01:15:23.558Z,2.20
2019-04-26T01:17:53.123Z,2.27
2019-04-26T01:20:22.566Z,2.37
2019-04-26T01:22:51.345Z,2.40
2019-04-26T01:25:41.037Z,2.53
2019-04-26T01:28:12.663Z,1.63
2019-04-26T01:30:41.086Z,2.13
2019-04-26T01:33:09.547Z,2.00
2019-04-26T01:35:37.982Z,1.67
2019-04-26T01:38:08.643Z,2.50
2019-04-26T01:40:38.001Z,1.30
2019-04-26T01:43:08.118Z,1.57
2019-04-26T01:45:38.140Z,1.30
2019-04-26T01:48:31.324Z,1.60
2019-04-26T01:50:59.784Z,1.77
2019-04-26T01:53:28.797Z,1.50
2019-04-26T01:55:57.299Z,1.27
2019-04-26T01:58:25.695Z,1.30
2019-04-26T02:00:55.721Z,1.53
2019-04-26T02:03:25.819Z,1.63
2019-04-26T02:05:54.215Z,1.33
2019-04-26T02:08:23.451Z,1.40
2019-04-26T02:10:52.951Z,1.40
2019-04-26T02:13:23.610Z,1.07
2019-04-26T02:15:52.440Z,1.23
2019-04-26T02:18:20.897Z,1.47
2019-04-26T02:20:58.315Z,1.20
2019-04-26T02:23:37.585Z,1.70
2019-04-26T02:26:25.556Z,1.23
2019-04-26T02:28:54.456Z,2.53
2019-04-26T02:31:22.846Z,2.17
2019-04-26T02:33:51.285Z,1.60
2019-04-26T02:36:19.915Z,1.13
2019-04-26T02:38:48.311Z,1.30
2019-04-26T02:41:16.702Z,1.60
2019-04-26T02:43:45.144Z,1.20
2019-04-26T02:46:22.013Z,1.50
2019-04-26T02:49:03.126Z,1.17
2019-04-26T02:51:38.129Z,1.30
2019-04-26T02:54:10.133Z,1.80
2019-04-26T02:56:41.971Z,1.33
2019-04-26T02:59:13.654Z,1.20
2019-04-26T03:01:42.095Z,1.30
2019-04-26T03:04:10.478Z,1.27
2019-04-26T03:06:41.158Z,1.50
2019-04-26T03:09:09.827Z,1.40
2019-04-26T03:11:44.415Z,2.30
2019-04-26T03:14:14.443Z,8.10
2019-04-26T03:16:50.303Z,2.90
2019-04-26T03:19:23.598Z,1.67
2019-04-26T03:21:55.611Z,1.60
2019-04-26T03:24:27.568Z,1.57
2019-04-26T03:27:15.978Z,1.87
2019-04-26T03:30:19.050Z,2.03
2019-04-26T03:33:05.123Z,1.40
2019-04-26T03:36:00.525Z,1.67
2019-04-26T03:38:54.314Z,2.23
2019-04-26T03:41:36.295Z,1.53
2019-04-26T03:44:12.769Z,2.43
2019-04-26T03:46:50.255Z,2.00
2019-04-26T03:49:54.512Z,1.50
2019-04-26T03:52:51.818Z,1.30
2019-04-26T03:55:34.571Z,6.30
2019-04-26T03:58:17.120Z,1.70
2019-04-26T04:00:59.338Z,1.73
2019-04-26T04:03:39.408Z,3.37
2019-04-26T04:06:08.998Z,2.00
2019-04-26T04:08:55.049Z,2.30
2019-04-26T04:11:29.446Z,1.53
2019-04-26T04:14:06.762Z,1.80
2019-04-26T04:16:52.165Z,1.60
2019-04-26T04:20:04.486Z,2.00
2019-04-26T04:22:41.155Z,2.57
2019-04-26T04:25:15.372Z,1.93
2019-04-26T04:27:47.905Z,1.80
2019-04-26T04:30:35.468Z,1.80
2019-04-26T04:33:13.061Z,1.93
2019-04-26T04:35:49.222Z,1.67
2019-04-26T04:38:48.412Z,2.07
2019-04-26T04:41:41.206Z,1.70
2019-04-26T04:44:17.432Z,2.17
2019-04-26T04:47:22.758Z,1.90
2019-04-26T04:50:07.035Z,1.47
2019-04-26T04:52:53.669Z,1.73
2019-04-26T04:55:37.259Z,1.93
2019-04-26T04:58:08.522Z,1.60
2019-04-26T05:01:16.357Z,2.00
2019-04-26T05:04:10.475Z,2.50
2019-04-26T05:07:07.519Z,1.70
2019-04-26T05:09:58.227Z,1.40
2019-04-26T05:12:46.360Z,2.27
2019-04-26T05:15:44.624Z,2.17
2019-04-26T05:18:27.927Z,1.90
2019-04-26T05:21:17.700Z,1.97
2019-04-26T05:23:55.328Z,2.07
2019-04-26T05:26:51.484Z,1.30
2019-04-26T05:29:36.551Z,2.00
2019-04-26T05:32:28.091Z,2.00
2019-04-26T05:35:08.644Z,1.73
2019-04-26T05:37:47.859Z,1.77
2019-04-26T05:40:36.296Z,1.87
2019-04-26T05:43:21.429Z,1.57
2019-04-26T05:46:26.496Z,1.70
2019-04-26T05:49:39.130Z,1.70
2019-04-26T05:52:32.085Z,2.00
2019-04-26T05:55:41.579Z,2.37
2019-04-26T05:58:22.101Z,2.03
2019-04-26T06:01:10.604Z,1.90
2019-04-26T06:04:08.782Z,1.83
2019-04-26T06:06:41.571Z,1.73
2019-04-26T06:09:57.113Z,1.63
2019-04-26T06:12:48.579Z,2.17
2019-04-26T06:15:33.685Z,1.70
2019-04-26T06:18:21.518Z,3.23
2019-04-26T06:20:52.853Z,1.90
2019-04-26T06:23:31.626Z,1.83
2019-04-26T06:26:36.296Z,2.00
2019-04-26T06:29:33.737Z,1.70
2019-04-26T06:32:11.353Z,1.50
2019-04-26T06:34:49.049Z,1.60
2019-04-26T06:37:40.056Z,2.47
2019-04-26T06:40:17.671Z,1.50
2019-04-26T06:43:11.053Z,2.07
2019-04-26T06:46:02.702Z,1.90
2019-04-26T06:48:57.309Z,1.70
2019-04-26T06:51:34.879Z,1.70
2019-04-26T06:54:27.913Z,1.70
2019-04-26T06:57:15.211Z,2.00
2019-04-26T06:59:48.982Z,1.73
2019-04-26T07:02:32.963Z,2.27
2019-04-26T07:05:04.829Z,1.90
2019-04-26T07:07:57.452Z,1.77
2019-04-26T07:11:03.225Z,2.00
2019-04-26T07:13:51.584Z,1.97
2019-04-26T07:16:56.345Z,2.10
2019-04-26T07:19:54.345Z,3.23
2019-04-26T07:23:01.963Z,2.10
2019-04-26T07:26:04.049Z,2.37
2019-04-26T07:29:09.335Z,2.07
2019-04-26T07:31:56.103Z,2.23
2019-04-26T07:35:02.780Z,2.07
2019-04-26T07:37:39.721Z,2.23
2019-04-26T07:40:38.675Z,2.37
2019-04-26T07:43:23.620Z,2.03
2019-04-26T07:46:24.355Z,2.80
2019-04-26T07:49:02.916Z,3.00
2019-04-26T07:51:55.167Z,2.93
2019-04-26T07:55:00.040Z,2.60
2019-04-26T07:57:49.337Z,2.73
2019-04-26T08:00:20.844Z,2.17
2019-04-26T08:02:55.479Z,2.83
2019-04-26T08:05:34.717Z,2.50
2019-04-26T08:08:05.866Z,2.17
2019-04-26T08:10:40.315Z,2.67
2019-04-26T08:13:13.013Z,2.95
2019-04-26T08:15:53.427Z,2.60
2019-04-26T08:18:30.236Z,2.80
2019-04-26T08:21:02.424Z,3.12
2019-04-26T08:23:42.294Z,2.25
2019-04-26T08:26:09.149Z,2.72
2019-04-26T08:28:38.184Z,2.52
2019-04-26T08:31:08.972Z,3.42
2019-04-26T08:33:48.233Z,2.67
2019-04-26T08:36:12.688Z,2.70
2019-04-26T08:38:41.220Z,3.20
2019-04-26T08:41:11.585Z,2.90
2019-04-26T08:43:48.383Z,2.63
2019-04-26T08:46:24.594Z,3.23
2019-04-26T08:49:02.195Z,2.40
2019-04-26T08:51:31.494Z,3.53
2019-04-26T08:53:59.875Z,3.40
2019-04-26T08:56:36.204Z,3.27
2019-04-26T08:59:16.442Z,3.13
2019-04-26T09:01:46.625Z,3.90
2019-04-26T09:04:22.363Z,3.70
2019-04-26T09:06:52.704Z,3.70
2019-04-26T09:09:23.856Z,4.90
2019-04-26T09:11:59.484Z,4.17
2019-04-26T09:14:23.625Z,4.30
2019-04-26T09:16:52.175Z,4.00
2019-04-26T09:19:20.546Z,2.50
2019-04-26T09:21:51.788Z,3.70
2019-04-26T09:24:26.667Z,2.97
2019-04-26T09:27:06.138Z,4.13
2019-04-26T09:29:38.610Z,3.60
2019-04-26T09:32:11.878Z,3.70
2019-04-26T09:34:41.596Z,3.30
2019-04-26T09:37:11.296Z,3.63
2019-04-26T09:39:41.623Z,4.30
2019-04-26T09:42:17.223Z,4.10
2019-04-26T09:44:50.032Z,4.83
2019-04-26T09:47:20.059Z,4.07
2019-04-26T09:50:06.294Z,4.10
2019-04-26T09:52:48.616Z,5.37
2019-04-26T09:55:17.072Z,6.27
2019-04-26T09:57:45.464Z,6.63
2019-04-26T10:00:16.870Z,6.40
2019-04-26T10:02:45.318Z,6.67
2019-04-26T10:05:17.688Z,7.37
2019-04-26T10:07:45.389Z,7.40
2019-04-26T10:10:22.737Z,7.37
2019-04-26T10:13:02.428Z,7.00
2019-04-26T10:15:44.606Z,7.50
2019-04-26T10:18:14.647Z,8.03
2019-04-26T10:20:43.033Z,7.17
2019-04-26T10:23:11.640Z,8.20
2019-04-26T10:25:40.031Z,8.90
2019-04-26T10:28:11.766Z,9.20
2019-04-26T10:30:42.422Z,6.50
2019-04-26T10:33:08.759Z,7.33
2019-04-26T10:35:37.164Z,8.53
2019-04-26T10:38:05.709Z,7.03
2019-04-26T10:40:35.664Z,7.50
2019-04-26T10:43:04.267Z,7.10
2019-04-26T10:45:32.798Z,7.80
2019-04-26T10:48:01.175Z,5.70
2019-04-26T10:50:32.983Z,6.93
2019-04-26T10:53:17.550Z,8.07
2019-04-26T10:56:03.669Z,8.00
2019-04-26T10:58:36.312Z,8.03
2019-04-26T11:01:07.023Z,6.60
2019-04-26T11:03:35.419Z,7.20
2019-04-26T11:06:03.886Z,7.73
2019-04-26T11:08:32.275Z,8.17
2019-04-26T11:11:00.667Z,7.80
2019-04-26T11:13:29.111Z,6.20
2019-04-26T11:15:57.502Z,6.43
2019-04-26T11:18:27.754Z,5.70
2019-04-26T11:20:56.054Z,7.47
2019-04-26T11:23:24.443Z,7.50
2019-04-26T11:25:52.916Z,6.97
2019-04-26T11:28:22.855Z,6.90
2019-04-26T11:30:52.143Z,5.57
2019-04-26T11:33:21.503Z,8.60
2019-04-26T11:35:49.977Z,7.10
2019-04-26T11:38:21.529Z,7.40
2019-04-26T11:40:53.326Z,6.80
2019-04-26T11:43:19.547Z,5.80
2019-04-26T11:45:49.382Z,6.00
2019-04-26T11:48:18.714Z,7.30
2019-04-26T11:50:48.182Z,6.70
2019-04-26T11:53:17.427Z,3.23
2019-04-26T11:55:45.821Z,7.87
2019-04-26T11:58:17.887Z,7.23
2019-04-26T12:00:46.182Z,6.73
2019-04-26T12:03:14.567Z,5.13
2019-04-26T12:05:47.370Z,7.47
2019-04-26T12:08:26.374Z,6.00
2019-04-26T12:10:54.833Z,4.60
2019-04-26T12:13:25.041Z,5.37
2019-04-26T12:15:53.669Z,6.27
2019-04-26T12:18:22.129Z,4.63
2019-04-26T12:20:50.491Z,5.90
2019-04-26T12:23:21.668Z,4.97
2019-04-26T12:25:49.084Z,5.23
2019-04-26T12:28:17.469Z,4.97
2019-04-26T12:30:45.853Z,5.73
2019-04-26T12:33:14.290Z,5.37
2019-04-26T12:35:42.667Z,4.07
2019-04-26T12:38:11.051Z,4.97
2019-04-26T12:40:42.321Z,5.50
2019-04-26T12:43:09.624Z,5.57
2019-04-26T12:45:42.639Z,5.30
2019-04-26T12:48:15.794Z,5.23
2019-04-26T12:50:42.844Z,6.60
2019-04-26T12:53:11.228Z,6.23
2019-04-26T12:55:39.675Z,5.73
2019-04-26T12:58:11.167Z,6.40
2019-04-26T13:00:38.919Z,5.07
2019-04-26T13:03:19.683Z,5.53
2019-04-26T13:05:37.664Z,5.30
2019-04-26T13:08:06.172Z,5.30
2019-04-26T13:10:48.299Z,6.97
2019-04-26T13:13:18.327Z,5.77
2019-04-26T13:15:57.882Z,5.40
2019-04-26T13:18:26.543Z,5.13
2019-04-26T13:20:58.701Z,5.00
2019-04-26T13:23:25.395Z,4.03
2019-04-26T13:25:55.433Z,4.10
2019-04-26T13:28:25.287Z,4.83
2019-04-26T13:30:53.867Z,4.10
2019-04-26T13:33:23.153Z,3.87
2019-04-26T13:36:02.743Z,5.20
2019-04-26T13:38:22.537Z,5.17
2019-04-26T13:40:50.919Z,5.17
2019-04-26T13:43:22.693Z,6.20
2019-04-26T13:45:51.100Z,4.20
2019-04-26T13:48:23.846Z,4.43
2019-04-26T13:51:06.164Z,2.60
2019-04-26T13:53:34.498Z,2.83
2019-04-26T13:56:03.453Z,3.80
2019-04-26T13:58:31.984Z,3.50
2019-04-26T14:01:00.375Z,2.87
2019-04-26T14:03:31.768Z,2.90
2019-04-26T14:05:59.339Z,4.00
2019-04-26T14:08:27.729Z,3.80
2019-04-26T14:10:56.105Z,2.90
2019-04-26T14:13:26.032Z,2.40
2019-04-26T14:15:54.547Z,3.40
2019-04-26T14:18:23.016Z,3.30
2019-04-26T14:20:54.635Z,3.10
2019-04-26T14:23:26.211Z,3.13
2019-04-26T14:26:01.215Z,3.00
2019-04-26T14:28:29.400Z,3.30
2019-04-26T14:30:57.799Z,4.10
2019-04-26T14:33:27.015Z,3.30
2019-04-26T14:35:56.336Z,2.97
2019-04-26T14:38:28.129Z,2.93
2019-04-26T14:41:03.781Z,2.50
2019-04-26T14:43:25.063Z,2.90
2019-04-26T14:45:56.242Z,3.03
2019-04-26T14:48:35.378Z,2.70
2019-04-26T14:50:53.740Z,3.13
2019-04-26T14:53:22.123Z,3.30
2019-04-26T14:55:51.369Z,4.10
2019-04-26T14:58:25.335Z,4.43
2019-04-26T15:00:55.916Z,4.47
2019-04-26T15:03:40.221Z,4.70
2019-04-26T15:06:10.335Z,4.13
2019-04-26T15:08:40.489Z,4.03
2019-04-26T15:11:08.915Z,3.77
2019-04-26T15:13:40.408Z,4.60
2019-04-26T15:16:10.524Z,3.77
2019-04-26T15:18:38.237Z,3.30
2019-04-26T15:21:06.624Z,3.03
2019-04-26T15:23:35.008Z,3.90
2019-04-26T15:26:03.476Z,3.67
2019-04-26T15:28:33.173Z,3.60
2019-04-26T15:31:02.328Z,3.40
2019-04-26T15:33:32.486Z,3.23
2019-04-26T15:36:02.220Z,3.90
2019-04-26T15:38:35.242Z,3.33
2019-04-26T15:41:05.376Z,2.80
2019-04-26T15:43:34.345Z,3.53
2019-04-26T15:46:12.373Z,2.80
2019-04-26T15:48:43.043Z,3.93
2019-04-26T15:51:12.568Z,3.00
2019-04-26T15:53:44.930Z,2.93
2019-04-26T15:56:14.576Z,2.37
2019-04-26T15:58:47.256Z,3.17
2019-04-26T16:01:13.718Z,2.77
2019-04-26T16:03:44.632Z,2.33
2019-04-26T16:06:12.630Z,3.17
2019-04-26T16:08:43.745Z,2.67
2019-04-26T16:11:12.497Z,2.50
2019-04-26T16:13:45.260Z,3.00
2019-04-26T16:16:12.607Z,3.33
2019-04-26T16:18:42.983Z,2.07
2019-04-26T16:21:17.654Z,2.60
2019-04-26T16:23:50.855Z,2.73
2019-04-26T16:26:14.362Z,2.70
2019-04-26T16:28:49.466Z,2.73
2019-04-26T16:31:25.028Z,3.17
2019-04-26T16:44:29.369Z,2.70
2019-04-26T16:47:01.148Z,2.50
2019-04-26T16:49:23.438Z,2.47
2019-04-26T16:52:01.523Z,2.43
2019-04-26T16:54:26.499Z,2.70
2019-04-26T16:56:52.706Z,2.17
2019-04-26T16:59:24.040Z,3.03
2019-04-26T17:01:53.609Z,2.37
2019-04-26T17:04:29.015Z,2.90
2019-04-26T17:06:52.924Z,2.30
2019-04-26T17:09:23.639Z,2.60
2019-04-26T17:11:52.388Z,2.63
2019-04-26T17:14:24.066Z,2.70
2019-04-26T17:16:53.270Z,2.40
2019-04-26T17:19:22.789Z,2.53
2019-04-26T17:21:56.493Z,2.10
2019-04-26T17:24:27.911Z,2.80
2019-04-26T17:27:05.338Z,2.00
2019-04-26T17:29:33.820Z,3.10
2019-04-26T17:32:02.623Z,3.33
2019-04-26T17:34:33.544Z,3.70
2019-04-26T17:37:02.477Z,3.27
2019-04-26T17:39:31.580Z,2.90
2019-04-26T17:42:01.221Z,2.73
2019-04-26T17:44:31.097Z,3.57
2019-04-26T17:47:02.012Z,3.40
2019-04-26T17:49:34.216Z,3.60
2019-04-26T17:52:01.961Z,3.73
2019-04-26T17:54:43.802Z,2.80
2019-04-26T17:56:59.979Z,3.53
2019-04-26T17:59:34.569Z,3.90
2019-04-26T18:02:01.127Z,3.83
2019-04-26T18:04:34.428Z,4.53
2019-04-26T18:07:05.074Z,3.30
2019-04-26T18:09:41.660Z,3.80
2019-04-26T18:12:00.073Z,3.93
2019-04-26T18:14:30.408Z,3.50
2019-04-26T18:17:01.582Z,4.40
2019-04-26T18:19:33.484Z,2.33
2019-04-26T18:22:03.853Z,3.40
2019-04-26T18:24:34.933Z,2.97
2019-04-26T18:27:03.580Z,4.30
2019-04-26T18:29:33.595Z,3.57
2019-04-26T18:32:03.769Z,3.90
2019-04-26T18:34:36.778Z,4.10
2019-04-26T18:37:06.932Z,3.60
2019-04-26T18:39:33.172Z,3.70
2019-04-26T18:42:04.601Z,4.13
2019-04-26T18:44:36.899Z,3.80
2019-04-26T18:47:20.535Z,3.77
2019-04-26T18:49:52.027Z,3.70
2019-04-26T18:52:22.827Z,3.83
2019-04-26T18:55:05.470Z,4.00
2019-04-26T18:57:33.602Z,3.40
2019-04-26T19:00:02.001Z,4.10
2019-04-26T19:02:30.450Z,3.83
2019-04-26T19:04:58.848Z,4.37
2019-04-26T19:07:32.246Z,2.67
2019-04-26T19:10:00.715Z,2.90
2019-04-26T19:12:28.271Z,3.07
2019-04-26T19:15:03.156Z,4.10
2019-04-26T19:17:33.809Z,3.10
2019-04-26T19:20:03.956Z,3.87
2019-04-26T19:22:34.515Z,3.70
2019-04-26T19:25:02.627Z,4.90
2019-04-26T19:27:31.010Z,3.10
2019-04-26T19:30:04.292Z,2.63
2019-04-26T19:32:29.627Z,3.13
2019-04-26T19:35:00.664Z,2.40
2019-04-26T19:37:30.459Z,2.60
2019-04-26T19:39:58.285Z,3.03
2019-04-26T19:42:27.174Z,2.67
2019-04-26T19:45:13.883Z,3.10
2019-04-26T19:47:31.503Z,2.33
2019-04-26T19:50:09.778Z,2.70
2019-04-26T19:52:40.686Z,3.60
2019-04-26T19:55:27.520Z,2.80
2019-04-26T19:58:17.338Z,3.23
2019-04-26T20:00:46.645Z,3.10
2019-04-26T20:03:16.645Z,3.80
2019-04-26T20:05:44.089Z,3.30
2019-04-26T20:08:12.732Z,4.37
2019-04-26T20:10:43.754Z,3.30
2019-04-26T20:13:15.114Z,3.80
2019-04-26T20:15:42.340Z,3.87
2019-04-26T20:18:12.225Z,4.07
2019-04-26T20:20:41.424Z,4.23
2019-04-26T20:23:09.899Z,4.10
2019-04-26T20:25:38.292Z,4.03
2019-04-26T20:28:06.736Z,3.37
2019-04-26T20:30:45.765Z,3.80
2019-04-26T20:33:14.210Z,4.60
2019-04-26T20:35:42.595Z,3.47
2019-04-26T20:38:11.835Z,3.33
2019-04-26T20:40:43.413Z,3.93
2019-04-26T20:43:20.947Z,3.87
2019-04-26T20:45:42.528Z,3.97
2019-04-26T20:48:10.873Z,3.80
2019-04-26T20:50:39.261Z,5.00
2019-04-26T20:53:07.728Z,3.90
2019-04-26T20:55:36.158Z,3.83
2019-04-26T20:58:08.337Z,3.43
2019-04-26T21:00:36.612Z,4.13
2019-04-26T21:03:06.099Z,3.90
2019-04-26T21:05:45.717Z,4.13
2019-04-26T21:08:04.887Z,4.53
2019-04-26T21:10:35.855Z,5.40
2019-04-26T21:13:03.436Z,4.30
2019-04-26T21:15:32.651Z,3.73
2019-04-26T21:18:04.157Z,3.40
2019-04-26T21:20:32.766Z,2.90
2019-04-26T21:23:02.683Z,3.30
2019-04-26T21:25:42.551Z,3.87
2019-04-26T21:28:12.571Z,4.10
2019-04-26T21:30:54.839Z,4.20
2019-04-26T21:33:28.670Z,3.80
2019-04-26T21:36:02.054Z,3.80
2019-04-26T21:38:31.131Z,3.33
2019-04-26T21:41:14.203Z,2.70
2019-04-26T21:43:43.820Z,3.67
2019-04-26T21:46:18.650Z,4.50
2019-04-26T21:48:44.615Z,4.00
2019-04-26T21:51:15.677Z,4.77
2019-04-26T21:53:45.161Z,4.83
2019-04-26T21:56:14.699Z,4.33
2019-04-26T21:58:43.613Z,4.70
2019-04-26T22:01:18.690Z,4.27
2019-04-26T22:03:53.673Z,4.00
2019-04-26T22:06:15.001Z,3.97
2019-04-26T22:08:45.004Z,4.50
2019-04-26T22:11:19.523Z,3.77
2019-04-26T22:13:50.803Z,4.30
2019-04-26T22:16:33.412Z,3.90
2019-04-26T22:19:07.720Z,3.43
2019-04-26T22:21:37.735Z,3.87
2019-04-26T22:24:16.766Z,3.73
2019-04-26T22:26:48.080Z,3.80
2019-04-26T22:29:16.811Z,4.47
2019-04-26T22:31:45.418Z,3.77
2019-04-26T22:34:13.896Z,4.83
2019-04-26T22:36:43.838Z,5.00
2019-04-26T22:39:17.694Z,4.23
2019-04-26T22:41:46.074Z,4.10
2019-04-26T22:44:19.235Z,4.03
2019-04-26T22:47:04.863Z,4.03
2019-04-26T22:49:35.041Z,4.03
2019-04-26T22:52:06.358Z,4.17
2019-04-26T22:54:37.791Z,4.47
2019-04-26T22:57:04.032Z,4.73
2019-04-26T22:59:33.876Z,5.00
2019-04-26T23:02:03.501Z,3.97
2019-04-26T23:04:33.036Z,4.50
2019-04-26T23:07:03.404Z,4.60
2019-04-26T23:09:33.391Z,4.63
2019-04-26T23:12:09.751Z,5.57
2019-04-26T23:14:48.246Z,4.30
2019-04-26T23:17:35.819Z,4.40
2019-04-26T23:20:15.559Z,4.83
2019-04-26T23:22:43.928Z,5.40
2019-04-26T23:25:13.635Z,5.50
2019-04-26T23:27:43.559Z,5.70
2019-04-26T23:30:13.102Z,4.77
2019-04-26T23:32:43.138Z,5.37
2019-04-26T23:35:11.695Z,4.70
2019-04-26T23:37:40.094Z,4.97
2019-04-26T23:40:08.467Z,5.33
2019-04-26T23:42:36.891Z,4.70
2019-04-26T23:45:10.771Z,4.53
2019-04-26T23:47:38.781Z,5.20
2019-04-26T23:50:06.918Z,5.27
2019-04-26T23:52:35.299Z,4.93
2019-04-26T23:55:07.819Z,5.80
2019-04-26T23:57:36.332Z,4.80
